Time,TemperatureF,DewpointF,PressureIn,WindDirection,WindDirectionDegrees,WindSpeedMPH,WindSpeedGustMPH,Humidity,HourlyPrecipIn,Conditions,Clouds,dailyrainin,SolarRadiationWatts/m^2,SoftwareType,DateUTC
2013-03-22 00:02:00,27.0,2.0,-100.00,WSW,239,11.0,24.0,33,0.00,,,0.00,0.000000,,2013-03-22 06:02:00,
2013-03-22 00:13:00,27.0,2.0,-100.00,WSW,239,11.0,24.0,33,0.00,,,0.00,0.000000,,2013-03-22 06:13:00,
2013-03-22 00:22:00,27.0,2.0,-100.00,WSW,239,11.0,24.0,33,0.00,,,0.00,0.000000,,2013-03-22 06:22:00,
2013-03-22 00:32:00,27.0,2.0,-100.00,WSW,239,11.0,24.0,33,0.00,,,0.00,0.000000,,2013-03-22 06:32:00,
2013-03-22 00:52:00,26.0,0.0,-100.00,South,188,5.0,17.0,31,0.00,,,0.00,0.000000,,2013-03-22 06:52:00,
2013-03-22 01:02:00,26.0,0.0,-100.00,South,188,5.0,17.0,31,0.00,,,0.00,0.000000,,2013-03-22 07:02:00,
2013-03-22 01:12:00,26.0,0.0,-100.00,South,188,5.0,17.0,31,0.00,,,0.00,0.000000,,2013-03-22 07:12:00,
2013-03-22 01:22:00,26.0,0.0,-100.00,South,188,5.0,17.0,31,0.00,,,0.00,0.000000,,2013-03-22 07:22:00,
2013-03-22 01:32:00,26.0,0.0,-100.00,South,188,5.0,17.0,31,0.00,,,0.00,0.000000,,2013-03-22 07:32:00,
2013-03-22 01:52:00,25.0,-2.0,-100.00,SSE,166,5.0,13.0,30,0.00,,,0.00,0.000000,,2013-03-22 07:52:00,
2013-03-22 02:03:00,25.0,-2.0,-100.00,SSE,166,5.0,13.0,30,0.00,,,0.00,0.000000,,2013-03-22 08:03:00,
2013-03-22 02:13:00,25.0,-2.0,-100.00,SSE,166,5.0,13.0,30,0.00,,,0.00,0.000000,,2013-03-22 08:13:00,
2013-03-22 02:22:00,25.0,-2.0,-100.00,SSE,166,5.0,13.0,30,0.00,,,0.00,0.000000,,2013-03-22 08:22:00,
2013-03-22 02:32:00,25.0,-2.0,-100.00,SSE,166,5.0,13.0,30,0.00,,,0.00,0.000000,,2013-03-22 08:32:00,
2013-03-22 02:52:00,25.0,-3.0,-100.00,South,186,5.0,20.0,29,0.00,,,0.00,0.000000,,2013-03-22 08:52:00,
2013-03-22 03:02:00,25.0,-3.0,-100.00,South,186,5.0,20.0,29,0.00,,,0.00,0.000000,,2013-03-22 09:02:00,
2013-03-22 03:12:00,25.0,-3.0,-100.00,South,186,5.0,20.0,29,0.00,,,0.00,0.000000,,2013-03-22 09:12:00,
2013-03-22 03:22:00,25.0,-3.0,-100.00,South,186,5.0,20.0,29,0.00,,,0.00,0.000000,,2013-03-22 09:22:00,
2013-03-22 03:32:00,25.0,-3.0,-100.00,South,186,5.0,20.0,29,0.00,,,0.00,0.000000,,2013-03-22 09:32:00,
2013-03-22 03:53:00,24.0,-5.0,-100.00,SW,214,4.0,10.0,27,0.00,,,-99.99,0.000000,,2013-03-22 09:53:00,
2013-03-22 04:04:00,24.0,-5.0,-100.00,SW,214,4.0,10.0,27,0.00,,,-99.99,0.000000,,2013-03-22 10:04:00,
2013-03-22 04:12:00,24.0,-5.0,-100.00,SW,214,4.0,10.0,27,0.00,,,-99.99,0.000000,,2013-03-22 10:12:00,
2013-03-22 04:22:00,24.0,-5.0,-100.00,SW,214,4.0,10.0,27,0.00,,,-99.99,0.000000,,2013-03-22 10:22:00,
2013-03-22 04:32:00,24.0,-5.0,-100.00,SW,214,4.0,10.0,27,0.00,,,-99.99,0.000000,,2013-03-22 10:32:00,
2013-03-22 04:52:00,23.0,-6.0,-100.00,SSE,168,5.0,13.0,27,0.00,,,0.00,0.000000,,2013-03-22 10:52:00,
2013-03-22 05:03:00,23.0,-6.0,-100.00,SSE,168,5.0,13.0,27,0.00,,,0.00,0.000000,,2013-03-22 11:03:00,
2013-03-22 05:12:00,23.0,-6.0,-100.00,SSE,168,5.0,13.0,27,0.00,,,0.00,0.000000,,2013-03-22 11:12:00,
2013-03-22 05:22:00,23.0,-6.0,-100.00,SSE,168,5.0,13.0,27,0.00,,,0.00,0.000000,,2013-03-22 11:22:00,
2013-03-22 05:33:00,23.0,-6.0,-100.00,SSE,168,5.0,13.0,27,0.00,,,0.00,0.000000,,2013-03-22 11:33:00,
2013-03-22 05:52:00,21.0,-6.0,-100.00,SSW,196,4.0,8.0,29,0.00,,,0.00,0.000000,,2013-03-22 11:52:00,
2013-03-22 06:02:00,21.0,-6.0,-100.00,SSW,196,4.0,8.0,29,0.00,,,0.00,0.000000,,2013-03-22 12:02:00,
2013-03-22 06:12:00,21.0,-6.0,-100.00,SSW,196,4.0,8.0,29,0.00,,,0.00,0.000000,,2013-03-22 12:12:00,
2013-03-22 06:22:00,21.0,-6.0,-100.00,SSW,196,4.0,8.0,29,0.00,,,0.00,0.000000,,2013-03-22 12:22:00,
2013-03-22 06:32:00,21.0,-6.0,-100.00,SSW,196,4.0,8.0,29,0.00,,,0.00,0.000000,,2013-03-22 12:32:00,
2013-03-22 06:52:00,21.0,-8.0,-100.00,SSW,204,4.0,8.0,27,0.00,,,0.00,0.000000,,2013-03-22 12:52:00,
2013-03-22 07:02:00,21.0,-8.0,-100.00,SSW,204,4.0,8.0,27,0.00,,,0.00,0.000000,,2013-03-22 13:02:00,
2013-03-22 07:12:00,21.0,-8.0,-100.00,SSW,204,4.0,8.0,27,0.00,,,0.00,0.000000,,2013-03-22 13:12:00,
2013-03-22 07:22:00,21.0,-8.0,-100.00,SSW,204,4.0,8.0,27,0.00,,,0.00,0.000000,,2013-03-22 13:22:00,
2013-03-22 07:32:00,21.0,-8.0,-100.00,SSW,204,4.0,8.0,27,0.00,,,0.00,0.000000,,2013-03-22 13:32:00,
2013-03-22 07:52:00,23.0,-11.0,-100.00,WSW,247,5.0,10.0,21,0.00,,,0.00,7.000000,,2013-03-22 13:52:00,
2013-03-22 08:02:00,23.0,-11.0,-100.00,WSW,247,5.0,10.0,21,0.00,,,0.00,7.000000,,2013-03-22 14:02:00,
2013-03-22 08:12:00,23.0,-11.0,-100.00,WSW,247,5.0,10.0,21,0.00,,,0.00,7.000000,,2013-03-22 14:12:00,
2013-03-22 08:22:00,23.0,-11.0,-100.00,WSW,247,5.0,10.0,21,0.00,,,0.00,7.000000,,2013-03-22 14:22:00,
2013-03-22 08:32:00,23.0,-11.0,-100.00,WSW,247,5.0,10.0,21,0.00,,,0.00,7.000000,,2013-03-22 14:32:00,
2013-03-22 09:03:00,26.0,-14.0,-100.00,WSW,240,11.0,21.0,16,0.00,,,0.00,74.000000,,2013-03-22 15:03:00,
2013-03-22 09:12:00,26.0,-14.0,-100.00,WSW,240,11.0,21.0,16,0.00,,,0.00,74.000000,,2013-03-22 15:12:00,
2013-03-22 09:22:00,26.0,-14.0,-100.00,WSW,240,11.0,21.0,16,0.00,,,0.00,74.000000,,2013-03-22 15:22:00,
2013-03-22 09:32:00,26.0,-14.0,-100.00,WSW,240,11.0,21.0,16,0.00,,,0.00,74.000000,,2013-03-22 15:32:00,
2013-03-22 09:53:00,27.0,-10.0,-100.00,WSW,247,11.0,24.0,19,0.00,,,0.00,204.000000,,2013-03-22 15:53:00,
2013-03-22 10:03:00,27.0,-10.0,-100.00,WSW,247,11.0,24.0,19,0.00,,,0.00,204.000000,,2013-03-22 16:03:00,
2013-03-22 10:13:00,27.0,-10.0,-100.00,WSW,247,11.0,24.0,19,0.00,,,0.00,204.000000,,2013-03-22 16:13:00,
2013-03-22 10:23:00,27.0,-10.0,-100.00,WSW,247,11.0,24.0,19,0.00,,,0.00,204.000000,,2013-03-22 16:23:00,
2013-03-22 10:32:00,27.0,-10.0,-100.00,WSW,247,11.0,24.0,19,0.00,,,0.00,204.000000,,2013-03-22 16:32:00,
2013-03-22 10:52:00,30.0,-5.0,-100.00,WSW,253,11.0,23.0,21,0.00,,,0.00,487.000000,,2013-03-22 16:52:00,
2013-03-22 11:03:00,30.0,-5.0,-100.00,WSW,253,11.0,23.0,21,0.00,,,0.00,487.000000,,2013-03-22 17:03:00,
2013-03-22 11:12:00,30.0,-5.0,-100.00,WSW,253,11.0,23.0,21,0.00,,,0.00,487.000000,,2013-03-22 17:12:00,
2013-03-22 11:23:00,30.0,-5.0,-100.00,WSW,253,11.0,23.0,21,0.00,,,0.00,487.000000,,2013-03-22 17:23:00,
2013-03-22 11:32:00,30.0,-5.0,-100.00,WSW,253,11.0,23.0,21,0.00,,,0.00,487.000000,,2013-03-22 17:32:00,
2013-03-22 12:02:00,33.0,-4.0,-100.00,West,264,11.0,32.0,20,0.00,,,0.00,760.000000,,2013-03-22 18:02:00,
2013-03-22 12:12:00,33.0,-4.0,-100.00,West,264,11.0,32.0,20,0.00,,,0.00,760.000000,,2013-03-22 18:12:00,
2013-03-22 12:22:00,33.0,-4.0,-100.00,West,264,11.0,32.0,20,0.00,,,0.00,760.000000,,2013-03-22 18:22:00,
2013-03-22 12:33:00,33.0,-4.0,-100.00,West,264,11.0,32.0,20,0.00,,,0.00,760.000000,,2013-03-22 18:33:00,
2013-03-22 12:52:00,35.0,-1.0,-100.00,WNW,285,10.0,27.0,21,0.00,,,0.00,843.000000,,2013-03-22 18:52:00,
2013-03-22 13:02:00,35.0,-1.0,-100.00,WNW,285,10.0,27.0,21,0.00,,,0.00,843.000000,,2013-03-22 19:02:00,
2013-03-22 13:12:00,35.0,-1.0,-100.00,WNW,285,10.0,27.0,21,0.00,,,0.00,843.000000,,2013-03-22 19:12:00,
2013-03-22 13:22:00,35.0,-1.0,-100.00,WNW,285,10.0,27.0,21,0.00,,,0.00,843.000000,,2013-03-22 19:22:00,
2013-03-22 13:32:00,35.0,-1.0,-100.00,WNW,285,10.0,27.0,21,0.00,,,0.00,843.000000,,2013-03-22 19:32:00,
2013-03-22 13:52:00,32.0,3.0,-100.00,South,186,8.0,18.0,29,0.00,,,0.00,528.000000,,2013-03-22 19:52:00,
2013-03-22 14:02:00,32.0,3.0,-100.00,South,186,8.0,18.0,29,0.00,,,0.00,528.000000,,2013-03-22 20:02:00,
2013-03-22 14:12:00,32.0,3.0,-100.00,South,186,8.0,18.0,29,0.00,,,0.00,528.000000,,2013-03-22 20:12:00,
2013-03-22 14:22:00,32.0,3.0,-100.00,South,186,8.0,18.0,29,0.00,,,0.00,528.000000,,2013-03-22 20:22:00,
2013-03-22 14:32:00,32.0,3.0,-100.00,South,186,8.0,18.0,29,0.00,,,0.00,528.000000,,2013-03-22 20:32:00,
2013-03-22 14:52:00,33.0,5.0,-100.00,SSW,211,5.0,17.0,30,0.00,,,0.00,271.000000,,2013-03-22 20:52:00,
2013-03-22 15:03:00,33.0,5.0,-100.00,SSW,211,5.0,17.0,30,0.00,,,0.00,271.000000,,2013-03-22 21:03:00,
2013-03-22 15:12:00,33.0,5.0,-100.00,SSW,211,5.0,17.0,30,0.00,,,0.00,271.000000,,2013-03-22 21:12:00,
2013-03-22 15:22:00,33.0,5.0,-100.00,SSW,211,5.0,17.0,30,0.00,,,0.00,271.000000,,2013-03-22 21:22:00,
2013-03-22 15:32:00,33.0,5.0,-100.00,SSW,211,5.0,17.0,30,0.00,,,0.00,271.000000,,2013-03-22 21:32:00,
2013-03-22 15:53:00,32.0,8.0,-100.00,WSW,255,14.0,31.0,36,0.00,,,0.00,335.000000,,2013-03-22 21:53:00,
2013-03-22 16:03:00,32.0,8.0,-100.00,WSW,255,14.0,31.0,36,0.00,,,0.00,335.000000,,2013-03-22 22:03:00,
2013-03-22 16:12:00,32.0,8.0,-100.00,WSW,255,14.0,31.0,36,0.00,,,0.00,335.000000,,2013-03-22 22:12:00,
2013-03-22 16:23:00,32.0,8.0,-100.00,WSW,255,14.0,31.0,36,0.00,,,0.00,335.000000,,2013-03-22 22:23:00,
2013-03-22 16:32:00,32.0,8.0,-100.00,WSW,255,14.0,31.0,36,0.00,,,0.00,335.000000,,2013-03-22 22:32:00,
2013-03-22 16:53:00,29.0,13.0,-100.00,WSW,251,17.0,32.0,50,0.00,,,0.00,136.000000,,2013-03-22 22:53:00,
2013-03-22 17:02:00,29.0,13.0,-100.00,WSW,251,17.0,32.0,50,0.00,,,0.00,136.000000,,2013-03-22 23:02:00,
2013-03-22 17:12:00,29.0,13.0,-100.00,WSW,251,17.0,32.0,50,0.00,,,0.00,136.000000,,2013-03-22 23:12:00,
2013-03-22 17:22:00,29.0,13.0,-100.00,WSW,251,17.0,32.0,50,0.00,,,0.00,136.000000,,2013-03-22 23:22:00,
2013-03-22 17:32:00,29.0,13.0,-100.00,WSW,251,17.0,32.0,50,0.00,,,0.00,136.000000,,2013-03-22 23:32:00,
2013-03-22 17:52:00,33.0,6.0,-100.00,WSW,253,14.0,31.0,31,0.00,,,0.00,107.000000,,2013-03-22 23:52:00,
2013-03-22 18:02:00,33.0,6.0,-100.00,WSW,253,14.0,31.0,31,0.00,,,0.00,107.000000,,2013-03-23 00:02:00,
2013-03-22 18:12:00,33.0,6.0,-100.00,WSW,253,14.0,31.0,31,0.00,,,0.00,107.000000,,2013-03-23 00:12:00,
2013-03-22 18:23:00,33.0,6.0,-100.00,WSW,253,14.0,31.0,31,0.00,,,0.00,107.000000,,2013-03-23 00:23:00,
2013-03-22 18:32:00,33.0,6.0,-100.00,WSW,253,14.0,31.0,31,0.00,,,0.00,107.000000,,2013-03-23 00:32:00,
2013-03-22 19:03:00,33.0,4.0,-100.00,WNW,283,10.0,19.0,29,0.00,,,0.00,100.000000,,2013-03-23 01:03:00,
2013-03-22 19:12:00,33.0,4.0,-100.00,WNW,283,10.0,19.0,29,0.00,,,0.00,100.000000,,2013-03-23 01:12:00,
2013-03-22 19:22:00,33.0,4.0,-100.00,WNW,283,10.0,19.0,29,0.00,,,0.00,100.000000,,2013-03-23 01:22:00,
2013-03-22 19:32:00,33.0,4.0,-100.00,WNW,283,10.0,19.0,29,0.00,,,0.00,100.000000,,2013-03-23 01:32:00,
2013-03-22 19:52:00,30.0,5.0,-100.00,WNW,284,16.0,30.0,34,0.00,,,0.00,14.000000,,2013-03-23 01:52:00,
2013-03-22 20:02:00,30.0,5.0,-100.00,WNW,284,16.0,30.0,34,0.00,,,0.00,14.000000,,2013-03-23 02:02:00,
2013-03-22 20:12:00,30.0,5.0,-100.00,WNW,284,16.0,30.0,34,0.00,,,0.00,14.000000,,2013-03-23 02:12:00,
2013-03-22 20:22:00,30.0,5.0,-100.00,WNW,284,16.0,30.0,34,0.00,,,0.00,14.000000,,2013-03-23 02:22:00,
2013-03-22 20:32:00,30.0,5.0,-100.00,WNW,284,16.0,30.0,34,0.00,,,0.00,14.000000,,2013-03-23 02:32:00,
2013-03-22 20:52:00,27.0,10.0,-100.00,West,273,8.0,21.0,48,0.00,,,0.00,0.000000,,2013-03-23 02:52:00,
2013-03-22 21:02:00,27.0,10.0,-100.00,West,273,8.0,21.0,48,0.00,,,0.00,0.000000,,2013-03-23 03:02:00,
2013-03-22 21:12:00,27.0,10.0,-100.00,West,273,8.0,21.0,48,0.00,,,0.00,0.000000,,2013-03-23 03:12:00,
2013-03-22 21:22:00,27.0,10.0,-100.00,West,273,8.0,21.0,48,0.00,,,0.00,0.000000,,2013-03-23 03:22:00,
2013-03-22 21:33:00,27.0,10.0,-100.00,West,273,8.0,21.0,48,0.00,,,0.00,0.000000,,2013-03-23 03:33:00,
2013-03-22 21:53:00,28.0,7.0,-100.00,West,264,8.0,17.0,41,0.00,,,0.00,0.000000,,2013-03-23 03:53:00,
2013-03-22 22:02:00,28.0,7.0,-100.00,West,264,8.0,17.0,41,0.00,,,0.00,0.000000,,2013-03-23 04:02:00,
2013-03-22 22:12:00,28.0,7.0,-100.00,West,264,8.0,17.0,41,0.00,,,0.00,0.000000,,2013-03-23 04:12:00,
2013-03-22 22:23:00,28.0,7.0,-100.00,West,264,8.0,17.0,41,0.00,,,0.00,0.000000,,2013-03-23 04:23:00,
2013-03-22 22:32:00,28.0,7.0,-100.00,West,264,8.0,17.0,41,0.00,,,0.00,0.000000,,2013-03-23 04:32:00,
2013-03-22 22:53:00,27.0,2.0,-100.00,West,271,16.0,29.0,33,0.00,,,0.00,0.000000,,2013-03-23 04:53:00,
2013-03-22 23:02:00,27.0,2.0,-100.00,West,271,16.0,29.0,33,0.00,,,0.00,0.000000,,2013-03-23 05:02:00,
2013-03-22 23:12:00,27.0,2.0,-100.00,West,271,16.0,29.0,33,0.00,,,0.00,0.000000,,2013-03-23 05:12:00,
2013-03-22 23:22:00,27.0,2.0,-100.00,West,271,16.0,29.0,33,0.00,,,0.00,0.000000,,2013-03-23 05:22:00,
2013-03-22 23:32:00,27.0,2.0,-100.00,West,271,16.0,29.0,33,0.00,,,0.00,0.000000,,2013-03-23 05:32:00,
2013-03-22 23:52:00,24.0,4.0,-100.00,West,270,15.0,26.0,42,0.00,,,0.00,0.000000,,2013-03-23 05:52:00,